Time;durP1;ratioP1;P1;durP2;ratioP2;P2;SDS_P1;SDS_P2;PMS_P1;PMS_P2;Temp;Humidity;BMP_temperature;BMP_pressure;BME280_temperature;BME280_humidity;BME280_pressure;Samples;Min_cycle;Max_cycle;Signal;HPM_P1;HPM_P2
2024/01/02 00:02:12;;;;;;;8.48;5.00;;;;;;;;;;4981013;28;20070;-60
2024/01/02 00:05:01;;;;;;;7.80;4.55;;;;;;;;;;4984355;28;20065;-63
2024/01/02 00:07:53;;;;;;;7.97;4.70;;;;;;;;;;4980546;28;20129;-68
2024/01/02 00:10:42;;;;;;;9.15;4.70;;;;;;;;;;4978986;28;20054;-68
2024/01/02 00:13:35;;;;;;;12.13;4.68;;;;;;;;;;4975806;28;20051;-68
2024/01/02 00:16:23;;;;;;;13.02;4.30;;;;;;;;;;4982046;28;20049;-68
2024/01/02 00:19:29;;;;;;;9.85;4.90;;;;;;;;;;4984124;28;20109;-68
2024/01/02 00:22:17;;;;;;;9.90;3.40;;;;;;;;;;4979285;28;20062;-63
2024/01/02 00:24:51;;;;;;;9.30;4.45;;;;;;;;;;4984101;28;20054;-64
2024/01/02 00:27:19;;;;;;;6.70;3.70;;;;;;;;;;4980203;28;20050;-63
2024/01/02 00:29:46;;;;;;;7.30;4.18;;;;;;;;;;4983655;28;20117;-63
2024/01/02 00:32:19;;;;;;;6.78;4.22;;;;;;;;;;4966657;28;20819;-63
2024/01/02 00:34:47;;;;;;;5.32;3.45;;;;;;;;;;4981661;28;20050;-61
2024/01/02 00:37:41;;;;;;;11.38;4.60;;;;;;;;;;4980958;28;20077;-61
2024/01/02 00:40:29;;;;;;;10.35;4.50;;;;;;;;;;4981077;28;20145;-60
2024/01/02 00:43:22;;;;;;;8.32;4.30;;;;;;;;;;4982296;28;20065;-60
2024/01/02 00:46:10;;;;;;;8.60;4.65;;;;;;;;;;4984478;28;20477;-61
2024/01/02 00:49:06;;;;;;;12.90;3.88;;;;;;;;;;4985159;28;20042;-60
2024/01/02 00:52:00;;;;;;;4.28;3.30;;;;;;;;;;4982935;28;20113;-60
2024/01/02 00:54:54;;;;;;;12.10;4.68;;;;;;;;;;4986151;28;20121;-58
2024/01/02 00:57:48;;;;;;;8.80;4.88;;;;;;;;;;4983421;28;20046;-61
2024/01/02 01:00:42;;;;;;;9.52;4.45;;;;;;;;;;4983774;28;20789;-61
2024/01/02 01:03:29;;;;;;;9.30;5.15;;;;;;;;;;4985426;28;20297;-56
2024/01/02 01:06:23;;;;;;;8.18;3.53;;;;;;;;;;4985331;28;20490;-57
2024/01/02 01:09:11;;;;;;;7.20;3.85;;;;;;;;;;4984835;28;20077;-55
2024/01/02 01:12:05;;;;;;;19.25;4.20;;;;;;;;;;4982974;28;20761;-56
2024/01/02 01:14:52;;;;;;;8.27;3.80;;;;;;;;;;4983901;28;20501;-56
2024/01/02 01:17:46;;;;;;;9.65;4.38;;;;;;;;;;4987717;28;20513;-60
2024/01/02 01:20:40;;;;;;;7.28;3.72;;;;;;;;;;4983833;28;20054;-59
2024/01/02 01:23:34;;;;;;;6.30;3.45;;;;;;;;;;4981624;28;20532;-60
2024/01/02 01:26:21;;;;;;;9.38;4.45;;;;;;;;;;4983880;28;20124;-58
2024/01/02 01:29:14;;;;;;;7.78;3.85;;;;;;;;;;4983302;28;20391;-50
2024/01/02 01:32:01;;;;;;;7.72;4.20;;;;;;;;;;4981759;28;20073;-63
2024/01/02 01:34:56;;;;;;;10.23;4.28;;;;;;;;;;4986005;28;20495;-64
2024/01/02 01:37:43;;;;;;;10.63;4.50;;;;;;;;;;4984328;28;20057;-63
2024/01/02 01:40:36;;;;;;;7.78;3.50;;;;;;;;;;4984414;28;20046;-63
2024/01/02 01:43:24;;;;;;;5.28;3.22;;;;;;;;;;4981824;28;20046;-64
2024/01/02 01:46:17;;;;;;;5.80;3.35;;;;;;;;;;4986717;28;20133;-58
2024/01/02 01:49:09;;;;;;;9.00;4.85;;;;;;;;;;4984339;28;20109;-60
2024/01/02 01:52:02;;;;;;;9.20;4.30;;;;;;;;;;4979134;28;20066;-61
2024/01/02 01:54:50;;;;;;;7.63;4.43;;;;;;;;;;4983972;28;20473;-57
2024/01/02 01:57:43;;;;;;;8.70;4.60;;;;;;;;;;4983462;28;20062;-54
2024/01/02 02:00:37;;;;;;;10.38;4.30;;;;;;;;;;4983128;28;20062;-63
2024/01/02 02:03:27;;;;;;;8.77;3.53;;;;;;;;;;4983873;28;20077;-63
2024/01/02 02:06:20;;;;;;;10.57;4.00;;;;;;;;;;4982653;28;20687;-63
2024/01/02 02:09:08;;;;;;;9.70;4.63;;;;;;;;;;4982296;28;20137;-63
2024/01/02 02:12:02;;;;;;;15.38;5.07;;;;;;;;;;4983023;28;20054;-62
2024/01/02 02:14:55;;;;;;;8.23;4.05;;;;;;;;;;4983616;28;21617;-59
2024/01/02 02:17:44;;;;;;;8.05;3.50;;;;;;;;;;4980880;28;20421;-61
2024/01/02 02:20:44;;;;;;;6.22;3.80;;;;;;;;;;4985346;28;20141;-60
2024/01/02 02:23:31;;;;;;;7.85;4.10;;;;;;;;;;4969100;28;20062;-60
2024/01/02 02:26:25;;;;;;;10.20;4.93;;;;;;;;;;4982089;28;20053;-59
2024/01/02 02:29:13;;;;;;;12.23;4.80;;;;;;;;;;4982981;28;20116;-62
2024/01/02 02:32:06;;;;;;;9.90;4.30;;;;;;;;;;4982241;28;20051;-62
2024/01/02 02:34:54;;;;;;;10.80;3.60;;;;;;;;;;4979051;28;20217;-62
2024/01/02 02:37:48;;;;;;;10.07;4.05;;;;;;;;;;4981316;28;20043;-63
2024/01/02 02:40:37;;;;;;;9.73;4.32;;;;;;;;;;4982410;28;20085;-63
2024/01/02 02:43:30;;;;;;;9.68;3.97;;;;;;;;;;4982807;28;20110;-60
2024/01/02 02:46:24;;;;;;;6.85;3.38;;;;;;;;;;4967173;28;20058;-59
2024/01/02 02:49:18;;;;;;;9.15;4.00;;;;;;;;;;4981020;28;20177;-59
2024/01/02 02:52:06;;;;;;;11.55;4.75;;;;;;;;;;4980782;28;20288;-65
2024/01/02 02:54:59;;;;;;;7.00;4.05;;;;;;;;;;4974788;28;20105;-62
2024/01/02 02:57:47;;;;;;;10.27;4.25;;;;;;;;;;4980789;28;20047;-60
2024/01/02 03:00:40;;;;;;;8.90;4.00;;;;;;;;;;4977470;28;20049;-60
2024/01/02 03:03:28;;;;;;;8.90;4.95;;;;;;;;;;4982443;28;20069;-60
2024/01/02 03:06:21;;;;;;;4.97;3.13;;;;;;;;;;4980761;28;20108;-59
2024/01/02 03:09:10;;;;;;;11.52;4.35;;;;;;;;;;4980048;28;20604;-60
2024/01/02 03:12:02;;;;;;;15.60;4.10;;;;;;;;;;4981278;28;20050;-57
2024/01/02 03:14:50;;;;;;;7.97;4.32;;;;;;;;;;4978144;28;20066;-58
2024/01/02 03:17:43;;;;;;;6.32;3.50;;;;;;;;;;4979345;28;20066;-57
2024/01/02 03:20:37;;;;;;;8.23;4.03;;;;;;;;;;4978836;28;20054;-56
2024/01/02 03:23:30;;;;;;;;;;;;;;;;;;4980233;28;20867;-53
2024/01/02 03:26:18;;;;;;;12.02;4.05;;;;;;;;;;4983212;28;20848;-62
2024/01/02 03:29:11;;;;;;;7.78;3.35;;;;;;;;;;4978913;28;20558;-63
2024/01/02 03:31:59;;;;;;;10.02;4.72;;;;;;;;;;4980432;28;20134;-62
2024/01/02 03:34:53;;;;;;;5.20;2.88;;;;;;;;;;4981919;28;20407;-63
2024/01/02 03:37:40;;;;;;;7.30;3.60;;;;;;;;;;4981368;28;20129;-62
2024/01/02 03:40:34;;;;;;;5.20;2.92;;;;;;;;;;4981411;28;20136;-51
2024/01/02 03:43:21;;;;;;;8.73;3.38;;;;;;;;;;4977176;28;20153;-51
2024/01/02 03:46:15;;;;;;;8.13;3.63;;;;;;;;;;4982306;28;20058;-52
2024/01/02 03:49:03;;;;;;;8.02;4.10;;;;;;;;;;4981335;28;20065;-49
2024/01/02 03:51:56;;;;;;;5.82;3.30;;;;;;;;;;4981975;28;20548;-62
2024/01/02 03:54:44;;;;;;;8.07;2.78;;;;;;;;;;4983126;28;20553;-54
2024/01/02 03:57:37;;;;;;;9.95;4.07;;;;;;;;;;4981221;28;20502;-52
2024/01/02 04:00:24;;;;;;;4.32;2.47;;;;;;;;;;4981599;28;20671;-52
2024/01/02 04:03:18;;;;;;;8.20;3.40;;;;;;;;;;4980534;28;20054;-52
2024/01/02 04:06:06;;;;;;;6.63;3.28;;;;;;;;;;4981972;28;20060;-56
2024/01/02 04:09:00;;;;;;;3.38;2.20;;;;;;;;;;4981569;28;20046;-61
2024/01/02 04:11:49;;;;;;;8.65;3.28;;;;;;;;;;4981217;28;20061;-59
2024/01/02 04:14:40;;;;;;;7.50;2.63;;;;;;;;;;4976475;28;20129;-60
2024/01/02 04:17:28;;;;;;;6.22;3.03;;;;;;;;;;4989202;28;20117;-60
2024/01/02 04:20:28;;;;;;;10.38;3.60;;;;;;;;;;4986041;28;20062;-63
2024/01/02 04:23:22;;;;;;;6.75;3.40;;;;;;;;;;4984465;28;20109;-60
2024/01/02 04:26:15;;;;;;;5.35;3.10;;;;;;;;;;4986291;28;20054;-61
2024/01/02 04:29:03;;;;;;;9.75;2.88;;;;;;;;;;4986738;28;20084;-60
2024/01/02 04:31:59;;;;;;;6.82;2.45;;;;;;;;;;4984263;28;20050;-61
2024/01/02 04:34:44;;;;;;;4.85;2.83;;;;;;;;;;4982757;28;20133;-60
2024/01/02 04:37:37;;;;;;;7.45;3.28;;;;;;;;;;4985683;28;20376;-54
2024/01/02 04:40:25;;;;;;;7.07;3.10;;;;;;;;;;4985642;28;20064;-52
2024/01/02 04:43:20;;;;;;;8.68;3.10;;;;;;;;;;4982409;28;20050;-55
2024/01/02 04:46:06;;;;;;;7.18;3.45;;;;;;;;;;4986021;28;20880;-55
2024/01/02 04:48:59;;;;;;;8.23;2.88;;;;;;;;;;4984086;28;20058;-64
2024/01/02 04:51:47;;;;;;;5.78;2.92;;;;;;;;;;4986095;28;20042;-63
2024/01/02 04:54:40;;;;;;;5.28;3.00;;;;;;;;;;4985454;28;20857;-63
2024/01/02 04:57:28;;;;;;;6.60;3.40;;;;;;;;;;4984115;28;20061;-63
2024/01/02 05:00:21;;;;;;;7.43;2.92;;;;;;;;;;4987457;28;20510;-63
2024/01/02 05:03:08;;;;;;;8.75;3.22;;;;;;;;;;4980960;28;20076;-63
2024/01/02 05:06:03;;;;;;;5.65;2.97;;;;;;;;;;4986915;28;20085;-63
2024/01/02 05:08:50;;;;;;;7.30;3.30;;;;;;;;;;4985818;28;20141;-63
2024/01/02 05:11:45;;;;;;;8.15;3.20;;;;;;;;;;4980717;28;20461;-64
2024/01/02 05:14:32;;;;;;;4.53;2.53;;;;;;;;;;4985633;28;20132;-63
2024/01/02 05:17:25;;;;;;;8.00;3.22;;;;;;;;;;4980310;28;20062;-63
2024/01/02 05:20:19;;;;;;;6.18;2.95;;;;;;;;;;4982986;28;20063;-54
2024/01/02 05:23:14;;;;;;;4.25;2.58;;;;;;;;;;4983227;28;20054;-56
2024/01/02 05:26:01;;;;;;;4.93;2.00;;;;;;;;;;4981430;28;20094;-51
2024/01/02 05:28:54;;;;;;;4.68;3.00;;;;;;;;;;4986037;28;20046;-57
2024/01/02 05:31:42;;;;;;;6.45;3.28;;;;;;;;;;4985944;28;20060;-54
2024/01/02 05:34:35;;;;;;;8.40;2.28;;;;;;;;;;4968762;28;20109;-63
2024/01/02 05:37:23;;;;;;;12.02;3.30;;;;;;;;;;4981895;28;20058;-63
2024/01/02 05:40:16;;;;;;;5.40;3.10;;;;;;;;;;4981515;28;20050;-63
2024/01/02 05:43:10;;;;;;;5.03;2.47;;;;;;;;;;4983330;28;20046;-63
2024/01/02 05:46:05;;;;;;;5.65;3.10;;;;;;;;;;4981082;28;20050;-55
2024/01/02 05:48:52;;;;;;;6.63;3.05;;;;;;;;;;4983244;28;20066;-64
2024/01/02 05:51:46;;;;;;;6.85;2.15;;;;;;;;;;4980946;28;20156;-62
2024/01/02 05:54:33;;;;;;;8.10;3.38;;;;;;;;;;4982171;28;20140;-64
2024/01/02 05:57:26;;;;;;;5.35;2.47;;;;;;;;;;4983275;28;20522;-63
2024/01/02 06:00:14;;;;;;;10.45;3.72;;;;;;;;;;4984733;28;20603;-61
2024/01/02 06:03:08;;;;;;;7.72;3.20;;;;;;;;;;4971941;28;20061;-60
2024/01/02 06:05:55;;;;;;;10.35;2.92;;;;;;;;;;4975090;28;20064;-58
2024/01/02 06:08:49;;;;;;;10.43;3.55;;;;;;;;;;4980590;28;20057;-57
2024/01/02 06:11:36;;;;;;;6.80;2.65;;;;;;;;;;4982744;28;20054;-58
2024/01/02 06:14:29;;;;;;;3.45;2.03;;;;;;;;;;4979646;28;20088;-65
2024/01/02 16:02:47;;;;;;;6.45;2.75;;;;;;;;;;4994319;28;20076;-67
2024/01/02 16:06:01;;;;;;;4.20;2.78;;;;;;;;;;5016720;28;20648;-50
2024/01/02 16:09:13;;;;;;;5.20;2.83;;;;;;;;;;5009778;28;20050;-63
2024/01/02 16:12:07;;;;;;;4.72;2.63;;;;;;;;;;5014913;28;20144;-62
2024/01/02 16:15:12;;;;;;;2.50;1.77;;;;;;;;;;5018076;28;20472;-62
2024/01/02 16:18:00;;;;;;;;;;;;;;;;;;5015744;28;20053;-63
2024/01/02 16:21:04;;;;;;;5.10;1.95;;;;;;;;;;5017445;28;20372;-62
2024/01/02 16:24:23;;;;;;;3.85;2.28;;;;;;;;;;5020576;28;20049;-53
2024/01/02 16:27:29;;;;;;;3.95;2.30;;;;;;;;;;5019329;28;20558;-54
2024/01/02 16:30:18;;;;;;;;;;;;;;;;;;5011951;28;20069;-53
2024/01/02 16:33:11;;;;;;;3.03;1.98;;;;;;;;;;5009495;28;21112;-54
2024/01/02 16:35:58;;;;;;;7.53;2.53;;;;;;;;;;5010894;28;20084;-62
2024/01/02 16:39:16;;;;;;;9.60;3.10;;;;;;;;;;5015941;28;20056;-61
2024/01/02 16:42:03;;;;;;;2.35;1.42;;;;;;;;;;5017784;28;20115;-65
2024/01/02 16:44:57;;;;;;;4.00;2.22;;;;;;;;;;5019202;28;20053;-61
2024/01/02 16:47:55;;;;;;;7.53;2.55;;;;;;;;;;5017347;28;20065;-61
2024/01/02 16:50:57;;;;;;;6.10;2.58;;;;;;;;;;5015237;28;20081;-60
2024/01/02 16:53:51;;;;;;;4.57;2.30;;;;;;;;;;5017263;28;20617;-52
2024/01/02 16:56:38;;;;;;;2.78;2.10;;;;;;;;;;5021676;28;20180;-55
2024/01/02 16:59:33;;;;;;;3.50;2.28;;;;;;;;;;5012527;28;20054;-56
2024/01/02 17:02:27;;;;;;;5.05;2.65;;;;;;;;;;5016625;28;20504;-57
2024/01/02 17:05:21;;;;;;;3.65;2.25;;;;;;;;;;5019534;28;20077;-57
2024/01/02 17:08:08;;;;;;;3.55;2.10;;;;;;;;;;5021982;28;20073;-57
2024/01/02 17:11:03;;;;;;;4.00;2.35;;;;;;;;;;5016258;28;20536;-53
2024/01/02 17:13:50;;;;;;;4.32;2.10;;;;;;;;;;5017248;28;20079;-53
2024/01/02 17:16:44;;;;;;;3.95;2.25;;;;;;;;;;5017862;28;20554;-55
2024/01/02 17:19:39;;;;;;;3.28;2.17;;;;;;;;;;5019641;28;20064;-58
2024/01/02 17:22:27;;;;;;;2.45;1.90;;;;;;;;;;5003668;28;20060;-67
2024/01/02 17:25:25;;;;;;;2.90;2.10;;;;;;;;;;5016223;28;20065;-67
2024/01/02 17:28:15;;;;;;;6.15;2.63;;;;;;;;;;5019718;28;20054;-67
2024/01/02 17:31:11;;;;;;;5.35;2.50;;;;;;;;;;5015178;28;20061;-70
2024/01/02 17:34:05;;;;;;;3.45;2.03;;;;;;;;;;5021180;28;20072;-67
2024/01/02 17:37:00;;;;;;;1.92;1.52;;;;;;;;;;5015520;28;20069;-67
2024/01/02 17:39:47;;;;;;;4.90;2.30;;;;;;;;;;5013824;28;20061;-54
2024/01/02 17:42:41;;;;;;;2.75;1.80;;;;;;;;;;5018784;28;20049;-50
2024/01/02 17:45:28;;;;;;;3.03;1.95;;;;;;;;;;5009210;28;20489;-51
2024/01/02 17:48:23;;;;;;;3.80;1.73;;;;;;;;;;5010992;28;20049;-49
2024/01/02 17:51:15;;;;;;;4.45;2.30;;;;;;;;;;5017565;28;20140;-51
2024/01/02 17:54:09;;;;;;;3.20;2.20;;;;;;;;;;5019042;28;20057;-52
2024/01/02 17:57:29;;;;;;;6.95;2.45;;;;;;;;;;5019842;28;20413;-61
2024/01/02 18:00:35;;;;;;;4.10;2.10;;;;;;;;;;4985646;28;20057;-58
2024/01/02 18:03:43;;;;;;;3.42;1.90;;;;;;;;;;4960143;28;20066;-57
2024/01/02 18:06:43;;;;;;;5.28;2.65;;;;;;;;;;4995130;28;20533;-58
2024/01/02 18:09:44;;;;;;;2.88;2.03;;;;;;;;;;4998956;28;20060;-55
2024/01/02 18:12:58;;;;;;;4.35;2.05;;;;;;;;;;4994118;28;20058;-55
2024/01/02 18:15:51;;;;;;;4.05;2.20;;;;;;;;;;4975245;28;21058;-53
2024/01/02 18:19:04;;;;;;;4.05;1.92;;;;;;;;;;4995867;28;20525;-64
2024/01/02 18:21:58;;;;;;;3.88;1.88;;;;;;;;;;4985819;28;20180;-61
2024/01/02 18:24:52;;;;;;;2.75;1.25;;;;;;;;;;4997657;28;20510;-60
2024/01/02 18:28:00;;;;;;;3.13;2.03;;;;;;;;;;4995543;28;20065;-60
2024/01/02 18:30:59;;;;;;;7.40;2.13;;;;;;;;;;4993820;28;20132;-62
2024/01/02 18:33:52;;;;;;;3.65;1.90;;;;;;;;;;4991992;28;20065;-62
2024/01/02 18:36:52;;;;;;;3.60;1.98;;;;;;;;;;4990153;28;20501;-63
2024/01/02 18:40:07;;;;;;;3.85;2.17;;;;;;;;;;4994257;28;20049;-63
2024/01/02 18:42:57;;;;;;;3.65;1.60;;;;;;;;;;4985004;28;20058;-59
2024/01/02 18:45:53;;;;;;;4.40;1.70;;;;;;;;;;4994461;28;20424;-62
2024/01/02 18:48:41;;;;;;;2.90;2.00;;;;;;;;;;4996931;28;20517;-62
2024/01/02 18:51:43;;;;;;;4.50;2.75;;;;;;;;;;4995851;28;20103;-62
2024/01/02 18:54:51;;;;;;;4.47;2.13;;;;;;;;;;4990247;28;20058;-60
2024/01/02 18:57:42;;;;;;;9.07;2.40;;;;;;;;;;4995420;28;20061;-63
2024/01/02 19:00:32;;;;;;;4.78;2.50;;;;;;;;;;4989330;28;20065;-63
2024/01/02 19:03:31;;;;;;;3.58;1.92;;;;;;;;;;4994241;28;20061;-61
2024/01/02 19:06:27;;;;;;;3.22;2.15;;;;;;;;;;4993961;28;20064;-61
2024/01/02 19:09:31;;;;;;;3.92;2.05;;;;;;;;;;4993375;28;20846;-63
2024/01/02 19:12:18;;;;;;;3.40;2.13;;;;;;;;;;4994704;28;20084;-56
2024/01/02 19:15:13;;;;;;;3.70;2.20;;;;;;;;;;4996934;28;20053;-62
2024/01/02 19:18:00;;;;;;;4.85;2.00;;;;;;;;;;4993192;28;20108;-62
2024/01/02 19:20:54;;;;;;;3.17;1.65;;;;;;;;;;4994617;28;20057;-63
2024/01/02 19:23:43;;;;;;;3.92;2.28;;;;;;;;;;4991727;28;20232;-62
2024/01/02 19:26:41;;;;;;;4.80;2.45;;;;;;;;;;4996073;28;20131;-62
2024/01/02 19:29:26;;;;;;;4.70;2.40;;;;;;;;;;4993843;28;20176;-55
2024/01/02 19:32:22;;;;;;;4.38;2.60;;;;;;;;;;4995174;28;20058;-59
2024/01/02 19:35:07;;;;;;;8.93;2.50;;;;;;;;;;4993960;28;20098;-62
2024/01/02 19:38:01;;;;;;;5.30;2.97;;;;;;;;;;4992901;28;20060;-60
2024/01/02 19:40:55;;;;;;;2.67;2.20;;;;;;;;;;4996116;28;20058;-60
2024/01/02 19:43:49;;;;;;;5.15;2.22;;;;;;;;;;4992451;28;20428;-60
2024/01/02 19:46:36;;;;;;;4.22;2.50;;;;;;;;;;4990252;28;20164;-63
2024/01/02 19:49:30;;;;;;;11.00;3.10;;;;;;;;;;4989970;28;20050;-62
2024/01/02 19:52:17;;;;;;;4.72;2.33;;;;;;;;;;4993808;28;20306;-61
2024/01/02 19:55:14;;;;;;;8.52;2.72;;;;;;;;;;4995566;28;20148;-62
2024/01/02 19:58:01;;;;;;;4.35;2.08;;;;;;;;;;4992120;28;20782;-60
2024/01/02 20:01:07;;;;;;;10.48;3.03;;;;;;;;;;4992203;28;20049;-63
2024/01/02 20:04:03;;;;;;;5.10;2.50;;;;;;;;;;5011446;28;20509;-61
2024/01/02 20:06:59;;;;;;;2.63;1.80;;;;;;;;;;5011681;28;20072;-62
2024/01/02 20:09:49;;;;;;;4.32;1.92;;;;;;;;;;5008872;28;20049;-63
2024/01/02 20:13:06;;;;;;;3.60;1.77;;;;;;;;;;5010120;28;20064;-63
2024/01/02 20:15:53;;;;;;;3.65;2.25;;;;;;;;;;4999157;28;20057;-63
2024/01/02 20:18:56;;;;;;;5.00;2.50;;;;;;;;;;5009806;28;20054;-64
2024/01/02 20:21:41;;;;;;;2.75;1.83;;;;;;;;;;5009427;28;20606;-63
2024/01/02 20:24:36;;;;;;;2.10;1.63;;;;;;;;;;5013905;28;20057;-63
2024/01/02 20:27:28;;;;;;;5.65;2.88;;;;;;;;;;5014233;28;20065;-62
2024/01/02 20:30:22;;;;;;;5.25;1.83;;;;;;;;;;5014291;28;20050;-63
2024/01/02 20:33:28;;;;;;;5.25;2.38;;;;;;;;;;5011084;28;20061;-63
2024/01/02 20:36:21;;;;;;;3.42;1.85;;;;;;;;;;5013321;28;21040;-62
2024/01/02 20:39:16;;;;;;;5.95;2.60;;;;;;;;;;5001799;28;20054;-63
2024/01/02 20:42:11;;;;;;;4.13;2.20;;;;;;;;;;5013106;28;21683;-57
2024/01/02 20:44:38;;;;;;;;;;;;;;;;;;5017169;28;20053;-50
2024/01/02 20:47:35;;;;;;;5.25;2.70;;;;;;;;;;5015017;28;19925;-56
2024/01/02 20:50:22;;;;;;;8.15;2.40;;;;;;;;;;5012799;28;20045;-52
2024/01/02 20:53:27;;;;;;;5.28;1.92;;;;;;;;;;5014961;28;20049;-53
2024/01/02 20:56:32;;;;;;;4.95;2.58;;;;;;;;;;5014078;28;20474;-50
2024/01/02 20:59:27;;;;;;;5.28;2.25;;;;;;;;;;5021203;28;20060;-53
2024/01/02 21:02:26;;;;;;;2.45;1.95;;;;;;;;;;5005696;28;20171;-48
2024/01/02 21:05:49;;;;;;;4.90;2.35;;;;;;;;;;5003975;28;20136;-60
2024/01/02 21:08:43;;;;;;;4.90;2.53;;;;;;;;;;5001818;28;20059;-57
2024/01/02 21:11:30;;;;;;;4.93;2.15;;;;;;;;;;5001252;28;20082;-59
2024/01/02 21:14:25;;;;;;;6.57;2.85;;;;;;;;;;4996072;28;20459;-59
2024/01/02 21:17:14;;;;;;;2.28;1.58;;;;;;;;;;5002175;28;20072;-58
2024/01/02 21:20:17;;;;;;;5.03;2.22;;;;;;;;;;5000532;28;20042;-56
2024/01/02 21:23:15;;;;;;;3.42;2.05;;;;;;;;;;5001008;28;20061;-62
2024/01/02 21:26:10;;;;;;;5.18;2.58;;;;;;;;;;4999809;28;20065;-62
2024/01/02 21:28:57;;;;;;;4.78;2.42;;;;;;;;;;5000163;28;20061;-62
2024/01/02 21:31:51;;;;;;;3.78;2.25;;;;;;;;;;5000250;28;20060;-62
2024/01/02 21:34:38;;;;;;;3.97;1.85;;;;;;;;;;5001595;28;20065;-60
2024/01/02 21:37:32;;;;;;;4.15;2.20;;;;;;;;;;5000917;28;20085;-53
2024/01/02 21:40:22;;;;;;;4.00;1.95;;;;;;;;;;5000652;28;20069;-51
2024/01/02 21:43:29;;;;;;;3.90;1.95;;;;;;;;;;4999987;28;20073;-62
2024/01/02 21:46:23;;;;;;;2.75;2.20;;;;;;;;;;5001449;28;20050;-62
2024/01/02 21:49:36;;;;;;;5.53;2.70;;;;;;;;;;4998950;28;20060;-62
2024/01/02 21:52:50;;;;;;;1.98;1.50;;;;;;;;;;5002037;28;20206;-62
2024/01/02 21:55:44;;;;;;;;;;;;;;;;;;5003078;28;20062;-62
2024/01/02 21:58:38;;;;;;;10.50;2.15;;;;;;;;;;4997114;28;19995;-62
2024/01/02 22:01:33;;;;;;;3.63;2.00;;;;;;;;;;5004353;28;20463;-62
2024/01/02 22:04:32;;;;;;;4.53;2.70;;;;;;;;;;5016570;28;21232;-60
2024/01/02 22:07:47;;;;;;;5.75;2.10;;;;;;;;;;5018671;28;20459;-62
2024/01/02 22:10:44;;;;;;;5.38;2.40;;;;;;;;;;5013748;28;20060;-58
2024/01/02 22:13:51;;;;;;;5.15;2.13;;;;;;;;;;5018366;28;20057;-59
2024/01/02 22:16:53;;;;;;;3.15;1.88;;;;;;;;;;5016650;28;20081;-59
2024/01/02 22:19:47;;;;;;;2.15;1.88;;;;;;;;;;5020743;28;20045;-54
2024/01/02 22:22:35;;;;;;;5.03;1.90;;;;;;;;;;5016461;28;20049;-59
2024/01/02 22:25:30;;;;;;;6.05;2.30;;;;;;;;;;5008914;28;20053;-62
2024/01/02 22:28:27;;;;;;;5.68;2.60;;;;;;;;;;5020127;28;20136;-62
2024/01/02 22:31:21;;;;;;;3.05;1.80;;;;;;;;;;5009990;28;20512;-62
2024/01/02 22:34:08;;;;;;;3.83;1.83;;;;;;;;;;5003199;28;20525;-59
2024/01/02 22:37:02;;;;;;;6.47;2.75;;;;;;;;;;5019185;28;21288;-57
2024/01/02 22:39:52;;;;;;;7.60;2.70;;;;;;;;;;5017935;28;20045;-62
2024/01/02 22:42:45;;;;;;;6.40;2.92;;;;;;;;;;5018633;28;20069;-62
2024/01/02 22:45:31;;;;;;;5.82;3.15;;;;;;;;;;5018767;28;20068;-62
2024/01/02 22:48:24;;;;;;;3.22;2.22;;;;;;;;;;5014353;28;20057;-61
2024/01/02 22:51:12;;;;;;;6.63;2.58;;;;;;;;;;5019620;28;20056;-62
2024/01/02 22:54:06;;;;;;;5.65;2.28;;;;;;;;;;5019696;28;20491;-61
2024/01/02 22:56:53;;;;;;;3.78;2.25;;;;;;;;;;5016974;28;20505;-62
2024/01/02 22:59:47;;;;;;;6.60;2.72;;;;;;;;;;5021721;28;20107;-62
2024/01/02 23:02:40;;;;;;;3.40;2.20;;;;;;;;;;5017926;28;20057;-61
2024/01/02 23:05:34;;;;;;;6.63;2.33;;;;;;;;;;5015961;28;20151;-61
2024/01/02 23:08:22;;;;;;;7.95;2.10;;;;;;;;;;5018359;28;20534;-62
2024/01/02 23:11:23;;;;;;;7.78;2.33;;;;;;;;;;5018240;28;21425;-68
2024/01/02 23:14:12;;;;;;;6.30;2.75;;;;;;;;;;5013014;28;20050;-68
2024/01/02 23:17:04;;;;;;;6.32;2.10;;;;;;;;;;5019353;28;20051;-68
2024/01/02 23:19:52;;;;;;;9.18;2.47;;;;;;;;;;5024137;28;20045;-68
2024/01/02 23:22:46;;;;;;;3.70;1.75;;;;;;;;;;5011268;28;20050;-62
2024/01/02 23:25:33;;;;;;;3.25;1.70;;;;;;;;;;5014965;28;20064;-61
2024/01/02 23:28:39;;;;;;;5.38;2.72;;;;;;;;;;5015289;28;20089;-62
2024/01/02 23:31:26;;;;;;;4.53;2.30;;;;;;;;;;5023023;28;20061;-60
2024/01/02 23:34:43;;;;;;;3.20;1.75;;;;;;;;;;5021141;28;20060;-61
2024/01/02 23:37:37;;;;;;;1.92;1.38;;;;;;;;;;5019245;28;20077;-61
2024/01/02 23:40:37;;;;;;;6.32;3.00;;;;;;;;;;5019426;28;20068;-58
2024/01/02 23:43:36;;;;;;;4.82;2.22;;;;;;;;;;5020427;28;20589;-58
2024/01/02 23:46:22;;;;;;;3.45;1.83;;;;;;;;;;5019822;28;20527;-57
2024/01/02 23:49:18;;;;;;;3.20;1.88;;;;;;;;;;5017149;28;20085;-59
2024/01/02 23:52:05;;;;;;;2.70;2.07;;;;;;;;;;5020094;28;20417;-62
2024/01/02 23:54:59;;;;;;;8.85;2.25;;;;;;;;;;5019800;28;20308;-51
2024/01/02 23:57:52;;;;;;;4.15;2.60;;;;;;;;;;5016190;28;20053;-53
